首页
METAR-TAF:

METAR-TAF

机场 :

Geraldton, 安大略省, 加拿大

纬度: 49-47N, 经度: 086-56W, 海拔: 349米

当前天气观测

该预报发布于11分钟前的11:08 UTC
风速4节,风向
温度 14°C
湿度 88%
气压 1019 hPa
能見度: 24.1公里
多云层高于1400英尺
多云层高于3800英尺
阴天层高于7000英尺

METAR: CYGQ 011108Z 35004KT 15SM BKN014 BKN038 OVC070 14/12 A3008 RMK SC5SC2AC1 SLP194

时间: 07:19 (11:19 UTC)

预报

该预报发布于1小时和45分钟前的09:34 UTC
预报有效从01日的 09点(UTC)到 01日的 20点(UTC)
风速5节,风向
能見度: 8.0公里
阴天层高于700英尺
轻雾
短暂存在
从 01日的 09点(UTC)到 01日的 14点(UTC)
能見度: 10公里
多云层高于1000英尺
阴天层高于6000英尺
从 01日的 1400点(UTC)
风速5节,风向北转西北
能見度: 10公里
多云层高于1500英尺
阴天层高于4000英尺
短暂存在
从 01日的 14点(UTC)到 01日的 16点(UTC)
散云层高于2000英尺
多云层高于4000英尺
从 01日的 1600点(UTC)
风速8节,风向北转西北
能見度: 10公里
多云层高于3000英尺

TAF: CYGQ 010934Z 0109/0120 35005KT 5SM BR OVC007 TEMPO 0109/0114 P6SM NSW BKN010 OVC060 FM011400 33005KT P6SM BKN015 OVC040 TEMPO 0114/0116 SCT020 BKN040 FM011600 33008KT P6SM BKN030 RMK NXT FCST BY 011400Z

超过4000个机场的气象观测和天气预报(METAR&TAF报告)。

可查询的气象台以黄色和红色小点在地图上表示。

将鼠标移到小点上方,可查看气象台名称。

然后点击查看天气观测和预报。

如需切换地图:点击带黑十字的绿色按钮放大地图;点击带横线的绿色按钮缩小地图;或者点击绿色箭头查看邻近地区的地图。


METAR-TAF: